LFKBLFKF

Guest
Details From LFKB - Bastia Poretta
To LFKF - Figari Sud Corse
Flight Number -
Tags decoded
Created
Modified
Stats Distance 78 nm / 145 km
Max Altitude 0 ft / 0 m
Waypoints 3
Social Downloads 0
Likes 0
Share VATSIM

Download

Looking for another format? Having issues loading an existing format? Contact us
Advertisement - Login to hide

Notes

Requested: LFKB AJO LFKF

Route

LFKB AJO LFKF

ID Type Via Altitude (ft/m) Position (lat/lon) Dist (leg/tot) Name
O LFKB APT - 0 / 0 42.55251 / 9.48371 - / 0 nm Bastia Poretta
AJO VOR - 0 / 0 41.77053 / 8.77467 56 / 56 nm AJACCIO VOR-DME
O LFKF APT - 0 / 0 41.50206 / 9.09696 21 / 78 nm Figari Sud Corse

Altitude Profile

Advertisement - Login to hide

LFKB

Details ICAO LFKB (BIA)
Name Bastia Poretta
Region France
Timezone Europe/Paris (UTC+2.0)
Stats Elevation 24 ft / 7 m (AMSL)
Location 42.552600° 9.483750°
Runways 1
Magnetic Variation 2.648° E

METAR

LFKB 160200Z AUTO 21004KT CAVOK 18/16 Q1015 TEMPO BKN010

Decode

TAF

TAF LFKB 152000Z 1521/1621 24004KT CAVOK TX26/1612Z TN16/1604Z TEMPO 1600/1606 BKN010 BECMG 1607/1609 07008KT BECMG 1618/1620 VRB02KT SCT013

Decode

Departure Runways

ID Width Length Bearing (true/mag) Surface Threshold Overrun Markings Lighting
16 148 ft / 45 m 8,273 ft / 2,522 m 162.83° / 160.19° ASPHALT 0 ft / 0 m 102 ft / 31 m APP CENTERLINE EDGE THRESHOLD TDZ REIL-OMNI
34 148 ft / 45 m 8,273 ft / 2,522 m 342.84° / 340.19° ASPHALT 0 ft / 0 m 0 ft / 0 m PREC-APP CENTERLINE EDGE THRESHOLD TDZ REIL-OMNI

LFKF

Details ICAO LFKF (FSC)
Name Figari Sud Corse
Region France
Timezone Europe/Paris (UTC+2.0)
Stats Elevation 86 ft / 26 m (AMSL)
Location 41.502300° 9.096970°
Runways 1
Magnetic Variation 2.538° E

METAR

LFKF 160200Z AUTO 05003KT 350V120 CAVOK 14/12 Q1016

Decode

TAF

TAF LFKF 152134Z 1521/1615 CNL

Decode

Destination Runways

ID Width Length Bearing (true/mag) Surface Threshold Overrun Markings Lighting
05 148 ft / 45 m 8,144 ft / 2,482 m 47.43° / 44.90° CONCRETE 0 ft / 0 m 0 ft / 0 m APP CENTERLINE EDGE THRESHOLD
23 148 ft / 45 m 8,144 ft / 2,482 m 227.45° / 224.91° CONCRETE 0 ft / 0 m 0 ft / 0 m PREC-APP CENTERLINE EDGE THRESHOLD

Approach Navaids

Runway Type Ident Frequency Range Bearing (true/mag) Slope Elevation
23 GS GR 110.50 MHz 27 nm / 50 km 227.44° / 224.90 ° 3.50° 86 ft / 26 m (AMSL)
23 DME GR 110.50 MHz 18 nm / 33 km - - 131 ft / 40 m (AMSL)
23 OM OM - - 227.43° / 224.89 ° - 87 ft / 27 m (AMSL)
23 LOC-ILS GR 110.50 MHz 27 nm / 50 km 227.44° / 224.90 ° - 86 ft / 26 m (AMSL)

Popular Alternatives